Time;durP1;ratioP1;P1;durP2;ratioP2;P2;SDS_P1;SDS_P2;PMS_P1;PMS_P2;Temp;Humidity;BMP_temperature;BMP_pressure;BME280_temperature;BME280_humidity;BME280_pressure;Samples;Min_cycle;Max_cycle;Signal;HPM_P1;HPM_P2
2022/01/27 00:01:25;;;;;;;;;;;;;;;2.85;53.99;100609.72;4962511;28;19969;-78
2022/01/27 00:06:49;;;;;;;;;;;;;;;2.95;54.02;100615.03;4957214;28;19930;-78
2022/01/27 00:12:03;;;;;;;;;;;;;;;3.37;52.88;100627.06;4945313;28;19922;-78
2022/01/27 00:14:28;;;;;;;;;;;;;;;3.14;54.29;100619.72;4947141;28;19933;-79
2022/01/27 00:16:57;;;;;;;;;;;;;;;3.00;50.37;100611.75;4963131;28;19976;-79
2022/01/27 00:19:23;;;;;;;;;;;;;;;3.16;53.46;100610.44;4960653;28;20021;-78
2022/01/27 00:21:49;;;;;;;;;;;;;;;3.04;54.13;100607.63;4946497;28;19938;-79
2022/01/27 00:24:15;;;;;;;;;;;;;;;3.06;55.59;100611.06;4961674;28;19959;-79
2022/01/27 00:26:42;;;;;;;;;;;;;;;2.68;54.54;100599.09;4961412;28;19926;-78
2022/01/27 00:29:07;;;;;;;;;;;;;;;2.49;56.22;100597.75;4961436;28;20017;-78
2022/01/27 00:31:33;;;;;;;;;;;;;;;2.90;57.67;100617.47;4962275;28;20008;-79
2022/01/27 00:34:03;;;;;;;;;;;;;;;2.90;55.34;100613.22;4966985;28;19926;-79
2022/01/27 00:36:29;;;;;;;;;;;;;;;2.82;52.91;100601.97;5043809;28;19921;-78
2022/01/27 00:38:57;;;;;;;;;;;;;;;3.14;55.50;100604.44;5028555;28;20067;-79
2022/01/27 00:41:28;;;;;;;;;;;;;;;2.72;54.73;100600.03;5046079;28;20761;-79
2022/01/27 00:43:57;;;;;;;;;;;;;;;2.31;54.48;100582.00;5052941;28;19921;-78
2022/01/27 00:46:22;;;;;;;;;;;;;;;2.51;52.98;100582.56;5048956;28;19925;-78
2022/01/27 00:48:48;;;;;;;;;;;;;;;2.50;55.90;100579.13;5046622;28;19927;-77
2022/01/27 00:51:20;;;;;;;;;;;;;;;2.65;55.69;100577.81;5076914;28;19965;-77
2022/01/27 01:02:17;;;;;;;;;;;;;;;2.57;56.81;100580.16;5010237;28;20010;-77
2022/01/27 01:04:47;;;;;;;;;;;;;;;2.72;56.19;100579.69;4996986;28;20056;-78
2022/01/27 01:07:14;;;;;;;;;;;;;;;2.35;52.60;100560.94;5012508;28;19921;-78
2022/01/27 01:15:27;;;;;;;;;;;;;;;2.06;55.81;100566.09;5014450;28;19933;-78
2022/01/27 01:18:23;;;;;;;;;;;;;;;2.28;56.90;100569.19;5015895;28;19921;-78
2022/01/27 01:31:47;;;;;;;;;;;;;;;2.30;50.05;100554.84;5020106;28;19982;-79
2022/01/27 01:34:27;;;;;;;;;;;;;;;2.43;48.93;100551.81;5078975;28;20400;-78
2022/01/27 01:36:58;;;;;;;;;;;;;;;2.59;47.04;100542.03;5081881;28;19916;-79
2022/01/27 01:39:28;;;;;;;;;;;;;;;2.18;47.65;100516.41;5079119;28;19922;-78
2022/01/27 01:41:53;;;;;;;;;;;;;;;2.23;47.61;100505.53;5093279;28;19939;-78
2022/01/27 01:44:25;;;;;;;;;;;;;;;2.46;46.14;100500.19;5093188;28;19939;-78
2022/01/27 01:47:00;;;;;;;;;;;;;;;2.38;46.63;100477.13;5068931;28;20676;-79
2022/01/27 01:49:28;;;;;;;;;;;;;;;2.32;45.10;100476.97;5057579;28;19928;-78
2022/01/27 01:52:11;;;;;;;;;;;;;;;2.23;44.45;100466.56;5058301;28;19916;-78
2022/01/27 01:54:37;;;;;;;;;;;;;;;1.94;45.56;100446.34;5069698;28;19924;-78
2022/01/27 01:57:06;;;;;;;;;;;;;;;1.97;45.75;100448.97;5057963;28;19942;-78
2022/01/27 01:59:31;;;;;;;;;;;;;;;2.18;46.14;100453.72;5059272;28;19933;-77
2022/01/27 02:02:05;;;;;;;;;;;;;;;2.24;44.19;100438.66;5072368;28;19927;-77
2022/01/27 02:04:37;;;;;;;;;;;;;;;2.47;41.03;100439.19;5074054;28;19920;-79
2022/01/27 02:07:30;;;;;;;;;;;;;;;2.39;43.88;100422.88;5076352;28;19924;-78
2022/01/27 02:18:31;;;;;;;;;;;;;;;2.03;39.73;100352.59;4982739;28;20087;-78
2022/01/27 02:20:56;;;;;;;;;;;;;;;2.39;39.09;100344.06;4981777;28;20522;-78
2022/01/27 02:23:24;;;;;;;;;;;;;;;2.00;36.94;100329.63;4965871;28;19922;-78
2022/01/27 02:25:50;;;;;;;;;;;;;;;2.09;40.10;100314.59;4982396;28;19992;-78
2022/01/27 02:28:18;;;;;;;;;;;;;;;1.85;37.90;100306.41;4982824;28;21160;-78
2022/01/27 02:30:53;;;;;;;;;;;;;;;1.79;40.97;100302.03;4972508;28;19918;-78
2022/01/27 02:33:31;;;;;;;;;;;;;;;1.79;37.95;100291.88;4982360;28;20026;-78
2022/01/27 02:35:56;;;;;;;;;;;;;;;2.10;39.43;100257.03;4978567;28;19953;-77
2022/01/27 02:38:21;;;;;;;;;;;;;;;2.00;35.35;100240.69;4980621;28;20399;-77
2022/01/27 02:41:06;;;;;;;;;;;;;;;2.01;35.85;100204.31;4982254;28;20245;-77
2022/01/27 02:43:31;;;;;;;;;;;;;;;2.04;33.60;100191.69;4997565;28;19920;-78
2022/01/27 02:46:08;;;;;;;;;;;;;;;2.04;34.36;100204.38;5075364;28;19973;-78
2022/01/27 02:48:37;;;;;;;;;;;;;;;1.93;33.00;100203.28;5073852;28;20300;-77
2022/01/27 02:51:05;;;;;;;;;;;;;;;1.94;33.32;100183.81;5076502;28;20122;-78
2022/01/27 02:53:33;;;;;;;;;;;;;;;2.27;34.33;100193.84;5091467;28;19927;-78
2022/01/27 02:56:00;;;;;;;;;;;;;;;2.42;30.71;100185.69;5074922;28;19926;-78
2022/01/27 02:58:28;;;;;;;;;;;;;;;2.28;33.31;100170.13;5092440;28;19915;-78
2022/01/27 03:00:54;;;;;;;;;;;;;;;2.08;31.95;100152.81;5092196;28;19928;-78
2022/01/27 03:03:22;;;;;;;;;;;;;;;2.11;31.80;100146.06;5072397;28;19935;-77
2022/01/27 03:05:54;;;;;;;;;;;;;;;2.00;31.30;100123.84;5093525;28;19924;-77
2022/01/27 03:08:19;;;;;;;;;;;;;;;2.02;30.71;100112.03;5094347;28;19955;-78
2022/01/27 03:10:52;;;;;;;;;;;;;;;1.92;31.78;100105.06;5091689;28;19920;-78
2022/01/27 03:13:20;;;;;;;;;;;;;;;2.03;31.30;100113.75;5076910;28;19915;-78
2022/01/27 03:15:46;;;;;;;;;;;;;;;2.44;32.11;100110.28;5073029;28;19980;-77
2022/01/27 03:18:17;;;;;;;;;;;;;;;2.12;30.15;100102.03;5094263;28;19998;-77
2022/01/27 03:20:43;;;;;;;;;;;;;;;2.26;35.10;100095.56;5094089;28;20369;-77
2022/01/27 03:23:14;;;;;;;;;;;;;;;2.14;32.00;100101.25;5091154;28;19920;-78
2022/01/27 03:25:42;;;;;;;;;;;;;;;2.12;33.74;100091.88;5090754;28;19924;-79
2022/01/27 03:28:30;;;;;;;;;;;;;;;1.88;32.05;100098.19;5090409;28;19923;-78
2022/01/27 03:30:58;;;;;;;;;;;;;;;2.17;32.11;100110.63;5074619;28;19989;-78
2022/01/27 03:33:27;;;;;;;;;;;;;;;1.84;34.68;100114.19;5048743;28;20361;-77
2022/01/27 03:35:58;;;;;;;;;;;;;;;1.75;34.16;100122.47;5076052;28;20288;-77
2022/01/27 03:38:24;;;;;;;;;;;;;;;2.04;35.71;100135.78;5076608;28;19966;-78
2022/01/27 03:40:52;;;;;;;;;;;;;;;1.97;35.65;100159.34;5059978;28;19963;-78
2022/01/27 03:43:18;;;;;;;;;;;;;;;2.31;36.51;100172.75;5095046;28;19991;-78
2022/01/27 03:45:44;;;;;;;;;;;;;;;2.09;34.93;100176.53;5091485;28;20014;-77
2022/01/27 03:48:20;;;;;;;;;;;;;;;1.92;38.00;100176.19;5090656;28;19967;-78
2022/01/27 03:50:46;;;;;;;;;;;;;;;1.87;36.42;100180.28;5076919;28;20065;-78
2022/01/27 03:53:17;;;;;;;;;;;;;;;1.94;39.07;100186.34;5057749;28;19991;-77
2022/01/27 03:55:46;;;;;;;;;;;;;;;2.33;37.40;100181.28;5074938;28;19920;-78
2022/01/27 03:58:12;;;;;;;;;;;;;;;2.50;36.33;100179.91;5092774;28;19931;-78
2022/01/27 04:00:37;;;;;;;;;;;;;;;2.42;34.09;100163.66;5070460;28;19919;-77
2022/01/27 04:03:06;;;;;;;;;;;;;;;2.25;33.10;100129.41;5072241;28;19922;-78
2022/01/27 04:05:41;;;;;;;;;;;;;;;2.49;31.74;100129.03;5075792;28;19991;-78
2022/01/27 04:08:10;;;;;;;;;;;;;;;2.34;34.79;100121.97;5061288;28;20322;-78
2022/01/27 04:10:36;;;;;;;;;;;;;;;2.11;34.94;100105.44;5077144;28;19942;-78
2022/01/27 04:13:08;;;;;;;;;;;;;;;2.40;35.61;100108.53;5079221;28;19916;-78
2022/01/27 04:15:43;;;;;;;;;;;;;;;2.22;33.52;100103.94;5098440;28;20373;-77
2022/01/27 04:18:15;;;;;;;;;;;;;;;2.06;31.83;100097.72;5080425;28;19976;-77
2022/01/27 04:20:41;;;;;;;;;;;;;;;2.57;31.82;100091.03;5078385;28;20325;-78
2022/01/27 04:23:07;;;;;;;;;;;;;;;2.49;31.02;100079.03;5078007;28;20425;-77
2022/01/27 04:25:47;;;;;;;;;;;;;;;2.37;32.75;100078.81;5077574;28;20043;-77
2022/01/27 04:28:23;;;;;;;;;;;;;;;2.67;31.81;100072.56;5096361;28;19927;-76
2022/01/27 04:30:55;;;;;;;;;;;;;;;2.31;32.74;100073.63;5093668;28;19925;-78
2022/01/27 04:33:25;;;;;;;;;;;;;;;2.31;32.73;100058.38;5080133;28;19936;-78
2022/01/27 04:35:57;;;;;;;;;;;;;;;2.30;32.88;100057.53;5099433;28;19912;-77
2022/01/27 04:38:39;;;;;;;;;;;;;;;2.43;32.26;100058.59;5096491;28;19912;-78
2022/01/27 04:48:43;;;;;;;;;;;;;;;2.66;32.62;100058.13;5072044;28;19928;-76
2022/01/27 04:51:15;;;;;;;;;;;;;;;2.74;31.44;100038.78;5077373;28;19912;-76
2022/01/27 04:53:50;;;;;;;;;;;;;;;2.63;29.82;100025.03;5057126;28;19932;-76
2022/01/27 04:56:17;;;;;;;;;;;;;;;2.38;32.96;100019.53;5075935;28;19920;-76
2022/01/27 04:58:53;;;;;;;;;;;;;;;2.60;33.00;100017.34;5057197;28;20818;-76
2022/01/27 05:01:38;;;;;;;;;;;;;;;2.76;30.45;100020.97;5055865;28;20416;-75
2022/01/27 05:04:13;;;;;;;;;;;;;;;2.67;31.97;99981.88;5075495;28;20420;-76
2022/01/27 05:06:45;;;;;;;;;;;;;;;2.42;31.71;99975.53;5059877;28;20400;-76
2022/01/27 05:09:11;;;;;;;;;;;;;;;2.43;32.17;99973.84;5059081;28;20516;-77
2022/01/27 05:11:51;;;;;;;;;;;;;;;2.56;32.43;99962.19;5054454;28;19999;-76
2022/01/27 05:14:26;;;;;;;;;;;;;;;2.66;32.48;99954.72;5077013;28;20591;-77
2022/01/27 05:16:57;;;;;;;;;;;;;;;2.77;33.30;99948.94;5077743;28;19912;-76
2022/01/27 05:19:23;;;;;;;;;;;;;;;2.70;33.35;99940.38;5055905;28;19923;-77
2022/01/27 05:21:48;;;;;;;;;;;;;;;2.78;33.03;99928.59;5055646;28;20316;-77
2022/01/27 05:24:18;;;;;;;;;;;;;;;3.04;33.49;99925.59;5063654;28;20019;-77
2022/01/27 05:26:46;;;;;;;;;;;;;;;2.78;33.63;99937.94;5057599;28;19920;-76
2022/01/27 05:29:11;;;;;;;;;;;;;;;2.78;34.53;99928.59;5074633;28;20074;-76
2022/01/27 05:31:37;;;;;;;;;;;;;;;2.76;33.76;99939.59;5074644;28;19980;-76
2022/01/27 05:34:06;;;;;;;;;;;;;;;2.92;32.04;99923.72;5058928;28;19917;-76
2022/01/27 05:36:34;;;;;;;;;;;;;;;2.85;33.69;99935.50;5059255;28;19955;-76
2022/01/27 05:39:00;;;;;;;;;;;;;;;3.01;33.36;99939.13;5074836;28;20386;-77
2022/01/27 05:41:26;;;;;;;;;;;;;;;3.35;32.79;99952.25;5078681;28;19919;-76
2022/01/27 05:43:51;;;;;;;;;;;;;;;3.05;32.38;99947.63;5077393;28;19917;-76
2022/01/27 05:46:17;;;;;;;;;;;;;;;3.17;33.71;99939.31;5083732;28;19943;-76
2022/01/27 05:48:42;;;;;;;;;;;;;;;3.01;32.50;99925.53;5098510;28;19941;-76
2022/01/27 05:51:07;;;;;;;;;;;;;;;3.33;32.21;99919.16;5098731;28;19924;-76
2022/01/27 05:53:35;;;;;;;;;;;;;;;3.03;34.28;99913.69;5076401;28;19926;-76
2022/01/27 05:56:01;;;;;;;;;;;;;;;3.08;33.05;99907.84;5078469;28;19916;-76
2022/01/27 05:58:26;;;;;;;;;;;;;;;3.00;32.82;99893.28;5077509;28;19919;-76
2022/01/27 06:00:52;;;;;;;;;;;;;;;3.22;33.76;99895.28;5094386;28;19912;-76
2022/01/27 06:03:17;;;;;;;;;;;;;;;3.33;32.81;99882.66;5060809;28;19939;-76
2022/01/27 06:05:42;;;;;;;;;;;;;;;3.03;33.28;99883.16;5094941;28;19920;-76
2022/01/27 06:08:08;;;;;;;;;;;;;;;3.20;32.46;99876.59;5077619;28;20030;-76
2022/01/27 06:10:33;;;;;;;;;;;;;;;3.18;33.76;99875.72;5076263;28;19979;-76
2022/01/27 06:12:58;;;;;;;;;;;;;;;3.19;33.61;99874.84;5075748;28;20255;-76
2022/01/27 06:15:24;;;;;;;;;;;;;;;3.38;33.60;99867.47;5096133;28;19919;-76
2022/01/27 06:17:50;;;;;;;;;;;;;;;3.41;33.44;99859.84;5076678;28;19983;-76
2022/01/27 06:20:15;;;;;;;;;;;;;;;3.29;33.94;99841.03;5096397;28;19920;-76
2022/01/27 06:22:41;;;;;;;;;;;;;;;3.57;33.86;99838.78;5079690;28;19984;-76
2022/01/27 06:25:06;;;;;;;;;;;;;;;3.56;32.06;99835.38;5079211;28;19923;-77
2022/01/27 06:27:32;;;;;;;;;;;;;;;3.70;33.62;99821.94;5081244;28;19977;-77
2022/01/27 06:29:57;;;;;;;;;;;;;;;3.66;34.14;99802.38;5077810;28;19919;-77
2022/01/27 06:32:22;;;;;;;;;;;;;;;3.55;33.50;99797.16;5098707;28;19916;-77
2022/01/27 06:34:48;;;;;;;;;;;;;;;3.73;33.70;99786.28;5094955;28;19920;-77
2022/01/27 06:37:13;;;;;;;;;;;;;;;3.31;33.96;99773.19;5077117;28;19912;-77
2022/01/27 06:39:39;;;;;;;;;;;;;;;3.53;33.20;99758.94;5077718;28;20280;-77
2022/01/27 06:42:07;;;;;;;;;;;;;;;3.53;32.77;99775.91;5076849;28;20011;-77
2022/01/27 06:44:32;;;;;;;;;;;;;;;3.62;33.57;99772.59;5094952;28;20011;-77
2022/01/27 06:46:58;;;;;;;;;;;;;;;3.62;34.35;99777.69;5063900;28;20022;-76
2022/01/27 06:49:26;;;;;;;;;;;;;;;3.63;32.73;99757.34;5096556;28;19912;-75
2022/01/27 06:51:51;;;;;;;;;;;;;;;3.77;33.77;99745.56;5076184;28;20019;-76
2022/01/27 06:54:35;;;;;;;;;;;;;;;3.40;34.66;99720.63;5094666;28;19967;-77
2022/01/27 06:57:05;;;;;;;;;;;;;;;3.80;34.80;99736.25;5092166;28;20384;-77
2022/01/27 06:59:35;;;;;;;;;;;;;;;3.71;34.11;99747.22;5073092;28;19923;-77
2022/01/27 07:02:03;;;;;;;;;;;;;;;3.51;35.26;99754.69;5076158;28;19916;-77
2022/01/27 07:04:29;;;;;;;;;;;;;;;3.72;35.04;99784.59;5093297;28;19915;-77
2022/01/27 07:07:00;;;;;;;;;;;;;;;3.54;36.53;99785.28;5097806;28;19927;-77
2022/01/27 07:09:28;;;;;;;;;;;;;;;3.91;34.58;99796.63;5093959;28;19911;-77
2022/01/27 07:12:00;;;;;;;;;;;;;;;3.74;35.10;99799.03;5092510;28;19916;-77
2022/01/27 07:14:25;;;;;;;;;;;;;;;3.65;34.83;99803.19;5072221;28;20631;-77
2022/01/27 07:16:56;;;;;;;;;;;;;;;3.74;35.17;99804.13;5074421;28;19999;-77
2022/01/27 07:19:24;;;;;;;;;;;;;;;3.86;34.71;99812.72;5075854;28;19916;-76
2022/01/27 07:21:50;;;;;;;;;;;;;;;3.59;35.84;99798.91;5090181;28;19924;-76
2022/01/27 07:24:15;;;;;;;;;;;;;;;3.77;37.08;99800.75;5093811;28;20019;-76
2022/01/27 07:26:44;;;;;;;;;;;;;;;3.77;36.08;99806.69;5094598;28;19920;-76
2022/01/27 07:29:09;;;;;;;;;;;;;;;3.82;34.95;99811.00;5094350;28;19956;-76
2022/01/27 07:31:38;;;;;;;;;;;;;;;3.79;36.06;99809.28;5091885;28;20597;-76
2022/01/27 07:34:06;;;;;;;;;;;;;;;3.88;37.32;99803.41;5075053;28;19939;-76
2022/01/27 07:36:31;;;;;;;;;;;;;;;3.92;34.19;99810.22;5075406;28;20301;-77
2022/01/27 07:39:01;;;;;;;;;;;;;;;3.93;36.50;99800.03;5071881;28;19923;-78
2022/01/27 07:41:26;;;;;;;;;;;;;;;4.22;33.61;99788.34;5090207;28;19916;-77
2022/01/27 07:43:52;;;;;;;;;;;;;;;4.16;36.75;99787.47;5073245;28;20433;-77
2022/01/27 07:46:17;;;;;;;;;;;;;;;4.31;36.80;99783.28;5090930;28;20030;-78
2022/01/27 07:48:51;;;;;;;;;;;;;;;3.98;36.29;99797.53;5055087;28;20289;-77
2022/01/27 07:51:23;;;;;;;;;;;;;;;4.07;38.02;99782.28;5069865;28;20576;-77
2022/01/27 07:53:51;;;;;;;;;;;;;;;4.17;35.81;99767.91;5072712;28;19916;-78
2022/01/27 07:56:22;;;;;;;;;;;;;;;4.17;34.96;99767.91;5070505;28;19916;-78
2022/01/27 07:58:47;;;;;;;;;;;;;;;4.16;35.20;99768.75;5075031;28;19916;-78
2022/01/27 08:01:16;;;;;;;;;;;;;;;3.99;36.69;99763.53;5072924;28;19969;-78
2022/01/27 08:03:47;;;;;;;;;;;;;;;4.25;37.44;99755.22;5074472;28;19916;-77
2022/01/27 08:06:16;;;;;;;;;;;;;;;4.25;38.37;99765.41;5071599;28;19974;-77
2022/01/27 08:08:44;;;;;;;;;;;;;;;4.16;37.41;99754.31;5072840;28;20118;-78
2022/01/27 08:11:15;;;;;;;;;;;;;;;4.42;38.20;99742.56;5075356;28;19917;-78
2022/01/27 08:13:41;;;;;;;;;;;;;;;4.36;38.10;99758.69;5070006;28;20351;-77
2022/01/27 08:16:06;;;;;;;;;;;;;;;4.06;38.87;99755.13;5072454;28;19920;-78
2022/01/27 08:18:32;;;;;;;;;;;;;;;4.01;40.45;99761.00;5075809;28;20016;-78
2022/01/27 08:20:57;;;;;;;;;;;;;;;4.10;39.58;99751.72;5076871;28;20296;-77
2022/01/27 08:23:33;;;;;;;;;;;;;;;4.02;40.67;99755.94;5072645;28;19916;-77
2022/01/27 08:26:07;;;;;;;;;;;;;;;4.16;42.01;99772.16;5067858;28;19920;-76
2022/01/27 08:29:10;;;;;;;;;;;;;;;4.20;41.63;99773.03;5073145;28;19920;-77
2022/01/27 08:31:33;;;;;;;;;;;;;;;4.12;41.82;99782.31;5067145;28;20627;-76
2022/01/27 08:34:14;;;;;;;;;;;;;;;4.35;46.47;99795.22;5074309;28;19916;-78
2022/01/27 08:36:45;;;;;;;;;;;;;;;4.20;44.93;99818.94;5064819;28;19916;-78
2022/01/27 08:39:13;;;;;;;;;;;;;;;4.13;49.14;99828.22;5074482;28;19920;-78
2022/01/27 08:41:47;;;;;;;;;;;;;;;4.05;51.27;99840.06;5074159;28;19916;-77
2022/01/27 08:44:13;;;;;;;;;;;;;;;4.27;53.63;99860.63;5071100;28;19916;-76
2022/01/27 08:46:39;;;;;;;;;;;;;;;4.55;55.89;99871.84;5068857;28;20677;-78
2022/01/27 08:49:10;;;;;;;;;;;;;;;4.39;57.87;99893.84;5070803;28;19984;-78
2022/01/27 08:51:45;;;;;;;;;;;;;;;4.33;57.89;99911.66;5071682;28;19916;-78
2022/01/27 08:54:13;;;;;;;;;;;;;;;4.07;64.68;99924.19;5072592;28;19939;-78
2022/01/27 08:56:45;;;;;;;;;;;;;;;4.22;61.21;99948.94;5077201;28;19924;-77
2022/01/27 08:59:11;;;;;;;;;;;;;;;4.41;61.08;99971.22;5060159;28;19924;-77
2022/01/27 09:01:37;;;;;;;;;;;;;;;4.57;63.67;99967.09;5060485;28;20620;-78
2022/01/27 09:04:03;;;;;;;;;;;;;;;4.25;66.05;99967.69;5041774;28;19920;-77
2022/01/27 09:06:32;;;;;;;;;;;;;;;4.31;68.20;99992.38;5058743;28;19920;-77
2022/01/27 09:08:58;;;;;;;;;;;;;;;4.53;66.12;100022.34;5058826;28;20037;-77
2022/01/27 09:11:24;;;;;;;;;;;;;;;4.53;68.06;100036.78;5075587;28;20015;-77
2022/01/27 09:13:54;;;;;;;;;;;;;;;4.15;70.17;100045.78;5075179;28;19916;-77
2022/01/27 09:16:27;;;;;;;;;;;;;;;4.31;68.37;100072.31;5076533;28;19916;-77
2022/01/27 09:18:53;;;;;;;;;;;;;;;4.35;68.14;100099.53;5070599;28;19915;-78
2022/01/27 09:21:23;;;;;;;;;;;;;;;4.41;73.41;100119.16;5045856;28;19965;-77
2022/01/27 09:23:49;;;;;;;;;;;;;;;4.59;70.78;100155.06;5045501;28;19901;-77
2022/01/27 09:29:05;;;;;;;;;;;;;;;4.40;73.53;100173.53;5075303;28;20240;-77
2022/01/27 09:31:30;;;;;;;;;;;;;;;4.29;73.74;100192.94;5074052;28;19927;-77
2022/01/27 09:33:58;;;;;;;;;;;;;;;4.41;75.43;100221.19;5078982;28;19916;-78
2022/01/27 09:36:23;;;;;;;;;;;;;;;4.21;77.18;100223.47;5055507;28;20278;-78
2022/01/27 09:38:48;;;;;;;;;;;;;;;4.43;79.52;100254.38;5076667;28;19916;-78
2022/01/27 09:41:15;;;;;;;;;;;;;;;4.54;76.23;100289.38;5058011;28;19974;-78
2022/01/27 09:43:41;;;;;;;;;;;;;;;4.69;76.31;100304.00;5057485;28;20014;-78
2022/01/27 09:46:07;;;;;;;;;;;;;;;4.51;76.23;100304.63;5047771;28;20015;-78
2022/01/27 09:48:40;;;;;;;;;;;;;;;4.66;73.04;100328.66;5097653;28;19920;-78
2022/01/27 09:51:37;;;;;;;;;;;;;;;4.84;77.90;100333.97;5080505;28;19980;-78
2022/01/27 09:53:52;;;;;;;;;;;;;;;4.74;75.77;100334.69;5094266;28;20426;-79
2022/01/27 09:56:18;;;;;;;;;;;;;;;4.63;78.38;100354.09;5073975;28;19916;-78
2022/01/27 09:58:43;;;;;;;;;;;;;;;4.94;76.56;100361.31;5077700;28;20273;-78
2022/01/27 10:01:08;;;;;;;;;;;;;;;4.68;80.57;100362.69;5097970;28;19915;-77
2022/01/27 10:03:34;;;;;;;;;;;;;;;4.63;80.57;100369.41;5079160;28;19974;-78
2022/01/27 10:06:13;;;;;;;;;;;;;;;4.78;81.27;100374.72;5049828;28;19995;-78
2022/01/27 10:08:41;;;;;;;;;;;;;;;5.02;77.82;100395.47;5074182;28;19920;-77
2022/01/27 10:11:15;;;;;;;;;;;;;;;5.03;79.25;100409.94;5096646;28;20023;-78
2022/01/27 10:13:43;;;;;;;;;;;;;;;4.78;81.19;100397.69;5078393;28;20280;-77
2022/01/27 10:16:26;;;;;;;;;;;;;;;4.99;80.46;100415.84;5077470;28;19922;-77
2022/01/27 10:19:08;;;;;;;;;;;;;;;4.86;79.30;100419.09;5076204;28;19926;-78
2022/01/27 10:21:42;;;;;;;;;;;;;;;4.82;80.20;100422.44;5076682;28;20366;-78
2022/01/27 10:24:18;;;;;;;;;;;;;;;5.05;77.38;100439.78;5074817;28;19927;-78
2022/01/27 10:26:53;;;;;;;;;;;;;;;5.30;82.02;100457.13;5095159;28;20408;-77
2022/01/27 10:29:32;;;;;;;;;;;;;;;5.17;81.11;100457.78;5079792;28;20416;-77
2022/01/27 10:32:08;;;;;;;;;;;;;;;5.18;81.33;100462.09;5078122;28;19926;-78
2022/01/27 10:34:54;;;;;;;;;;;;;;;5.15;80.49;100467.13;5071187;28;19924;-78
2022/01/27 10:37:35;;;;;;;;;;;;;;;4.94;85.72;100473.66;5093837;28;20011;-78
2022/01/27 10:40:01;;;;;;;;;;;;;;;4.92;84.16;100475.31;5079992;28;20360;-77
2022/01/27 10:42:26;;;;;;;;;;;;;;;5.17;82.01;100491.00;5093215;28;19912;-78
2022/01/27 10:45:07;;;;;;;;;;;;;;;4.98;86.45;100169.06;5089762;28;19923;-78
2022/01/27 10:47:45;;;;;;;;;;;;;;;5.32;79.54;100348.16;5073468;28;20955;-78
2022/01/27 10:50:11;;;;;;;;;;;;;;;5.21;80.17;100427.22;5095276;28;20549;-78
2022/01/27 10:52:41;;;;;;;;;;;;;;;5.49;81.73;100416.47;5073512;28;19907;-78
2022/01/27 10:55:11;;;;;;;;;;;;;;;5.02;80.59;100375.06;5076748;28;19912;-78
2022/01/27 10:57:47;;;;;;;;;;;;;;;5.31;79.39;100371.97;5067540;28;19924;-77
2022/01/27 11:00:20;;;;;;;;;;;;;;;5.24;81.90;100352.31;5087090;28;19989;-78
2022/01/27 11:02:56;;;;;;;;;;;;;;;5.18;82.83;100329.28;5073175;28;19919;-78
2022/01/27 11:05:29;;;;;;;;;;;;;;;5.56;81.24;100339.03;5074946;28;19969;-77
2022/01/27 11:08:03;;;;;;;;;;;;;;;5.59;81.43;100309.28;5092858;28;19963;-78
2022/01/27 11:10:29;;;;;;;;;;;;;;;5.80;81.99;100313.72;5059773;28;19916;-78
2022/01/27 11:12:58;;;;;;;;;;;;;;;5.34;83.52;100274.97;5093074;28;19919;-78
2022/01/27 11:15:24;;;;;;;;;;;;;;;5.31;81.44;100263.84;5087572;28;19920;-78
2022/01/27 11:17:50;;;;;;;;;;;;;;;5.43;84.52;100244.41;5063372;28;19927;-78
2022/01/27 11:20:34;;;;;;;;;;;;;;;5.38;84.98;100247.72;5084977;28;19916;-78
2022/01/27 11:23:24;;;;;;;;;;;;;;;5.43;85.49;100238.44;5074373;28;19995;-78
2022/01/27 11:25:52;;;;;;;;;;;;;;;5.48;86.53;100241.03;5079123;28;19924;-79
2022/01/27 11:28:18;;;;;;;;;;;;;;;5.27;87.39;100236.56;5055149;28;19923;-78
2022/01/27 11:30:45;;;;;;;;;;;;;;;5.45;87.91;100247.81;5091849;28;19947;-78
2022/01/27 11:33:18;;;;;;;;;;;;;;;5.25;88.88;100234.00;5091157;28;19945;-78
2022/01/27 11:35:43;;;;;;;;;;;;;;;5.31;90.31;100231.50;5041163;28;20345;-77
2022/01/27 11:38:12;;;;;;;;;;;;;;;5.19;91.60;100228.84;5071669;28;20010;-76
2022/01/27 11:40:42;;;;;;;;;;;;;;;5.30;91.00;100242.56;5090031;28;19915;-76
2022/01/27 11:43:08;;;;;;;;;;;;;;;5.13;91.91;100239.84;5090620;28;19927;-76
2022/01/27 11:45:43;;;;;;;;;;;;;;;5.47;93.20;100244.41;5093926;28;19916;-77
2022/01/27 11:48:14;;;;;;;;;;;;;;;5.66;92.51;100247.13;5053431;28;20832;-78
2022/01/27 11:50:55;;;;;;;;;;;;;;;5.66;92.33;100251.41;5053223;28;20019;-77
2022/01/27 11:53:40;;;;;;;;;;;;;;;5.47;92.51;100254.63;5054836;28;20013;-78
2022/01/27 11:56:07;;;;;;;;;;;;;;;5.25;91.98;100236.56;5058151;28;19958;-77
2022/01/27 11:58:43;;;;;;;;;;;;;;;5.26;93.54;100245.94;5046568;28;19920;-78
2022/01/27 12:01:15;;;;;;;;;;;;;;;5.61;92.87;100259.03;5047787;28;20518;-77
2022/01/27 12:04:06;;;;;;;;;;;;;;;5.42;93.79;100249.47;5050463;28;19912;-77
2022/01/27 12:06:38;;;;;;;;;;;;;;;5.57;93.13;100256.44;5049611;28;19930;-77
2022/01/27 12:09:40;;;;;;;;;;;;;;;5.46;92.35;100248.66;5051731;28;19916;-77
2022/01/27 12:12:26;;;;;;;;;;;;;;;5.45;93.73;100240.16;5049889;28;19916;-77
2022/01/27 12:15:00;;;;;;;;;;;;;;;5.67;92.13;100237.75;5035421;28;19921;-78
2022/01/27 12:17:28;;;;;;;;;;;;;;;5.76;93.16;100247.22;5067279;28;20345;-77
2022/01/27 12:19:57;;;;;;;;;;;;;;;5.83;93.87;100242.13;5069329;28;19924;-77
2022/01/27 12:22:56;;;;;;;;;;;;;;;5.88;92.61;100237.06;5032456;28;20228;-77
2022/01/27 12:25:24;;;;;;;;;;;;;;;5.42;91.98;100204.34;5067330;28;19967;-78
2022/01/27 12:27:50;;;;;;;;;;;;;;;5.95;92.00;100217.53;5051408;28;20839;-77
2022/01/27 12:30:16;;;;;;;;;;;;;;;5.79;90.78;100199.53;5073484;28;19932;-77
2022/01/27 12:32:46;;;;;;;;;;;;;;;5.81;91.89;100194.41;5055528;28;19919;-77
2022/01/27 12:35:17;;;;;;;;;;;;;;;6.04;90.13;100176.69;5055547;28;19940;-77
2022/01/27 12:37:45;;;;;;;;;;;;;;;5.77;91.90;100157.75;5058766;28;19916;-77
2022/01/27 12:40:32;;;;;;;;;;;;;;;5.86;92.41;100152.72;5073119;28;19920;-77
2022/01/27 12:43:01;;;;;;;;;;;;;;;5.87;90.32;100143.31;5054727;28;19916;-77
2022/01/27 12:45:29;;;;;;;;;;;;;;;6.13;88.51;100140.06;5072328;28;19928;-77
2022/01/27 12:48:11;;;;;;;;;;;;;;;5.87;89.15;100108.38;5038967;28;20007;-77
2022/01/27 12:50:37;;;;;;;;;;;;;;;5.85;91.54;100097.28;5053587;28;20349;-77
2022/01/27 12:53:09;;;;;;;;;;;;;;;6.14;92.38;100086.38;5055504;28;19935;-77
2022/01/27 12:55:38;;;;;;;;;;;;;;;6.22;89.36;100091.50;5063977;28;19930;-77
2022/01/27 12:58:03;;;;;;;;;;;;;;;5.73;90.92;100064.03;5046834;28;19920;-77
2022/01/27 13:00:30;;;;;;;;;;;;;;;5.78;91.94;100052.09;5064734;28;19928;-77
2022/01/27 13:03:02;;;;;;;;;;;;;;;6.13;91.40;100061.63;5048536;28;19928;-77
2022/01/27 13:05:35;;;;;;;;;;;;;;;5.74;91.38;100050.38;5052391;28;19923;-77
2022/01/27 13:08:04;;;;;;;;;;;;;;;5.96;92.44;100051.38;5052897;28;19928;-77
2022/01/27 13:10:29;;;;;;;;;;;;;;;5.99;90.71;100050.53;5059520;28;19981;-77
2022/01/27 13:12:58;;;;;;;;;;;;;;;6.21;90.57;100054.84;5049008;28;19925;-77
2022/01/27 13:15:30;;;;;;;;;;;;;;;5.82;92.29;100033.38;5055914;28;19913;-78
2022/01/27 13:20:51;;;;;;;;;;;;;;;6.02;93.14;100030.94;4966238;28;19922;-78
2022/01/27 13:23:30;;;;;;;;;;;;;;;6.32;90.68;100047.22;4974724;28;19974;-79
2022/01/27 13:25:59;;;;;;;;;;;;;;;6.18;91.62;100011.38;4971005;28;20763;-78
2022/01/27 13:28:27;;;;;;;;;;;;;;;6.41;90.80;100010.53;4958765;28;20249;-78
2022/01/27 13:30:56;;;;;;;;;;;;;;;6.32;91.11;99992.59;4975604;28;19922;-76
2022/01/27 13:33:25;;;;;;;;;;;;;;;6.46;90.26;99981.56;4978520;28;19947;-78
2022/01/27 13:35:54;;;;;;;;;;;;;;;6.31;90.04;99986.66;4963428;28;20057;-79
2022/01/27 13:38:29;;;;;;;;;;;;;;;6.03;91.41;99965.31;4977999;28;19914;-77
2022/01/27 13:41:24;;;;;;;;;;;;;;;6.21;90.59;99964.47;4958306;28;19922;-80
2022/01/27 13:44:15;;;;;;;;;;;;;;;6.14;91.02;99962.78;4958171;28;19973;-78
2022/01/27 13:46:48;;;;;;;;;;;;;;;6.07;92.11;99949.13;4977711;28;19926;-77
2022/01/27 13:49:18;;;;;;;;;;;;;;;6.06;91.92;99949.97;4981994;28;19913;-75
2022/01/27 13:51:55;;;;;;;;;;;;;;;6.13;92.21;99951.66;4996908;28;20703;-76
2022/01/27 13:54:47;;;;;;;;;;;;;;;6.15;92.54;99951.69;4995788;28;19950;-77
2022/01/27 13:57:23;;;;;;;;;;;;;;;6.20;91.46;99943.19;5006068;28;19956;-77
2022/01/27 13:59:55;;;;;;;;;;;;;;;6.27;91.84;99947.44;5074961;28;19920;-76